sensor_id;sensor_type;location;lat;lon;timestamp;pressure;altitude;pressure_sealevel;temperature;humidity
69796;BME280;57073;45.650;9.612;2023-01-30T00:07:49;99867.94;;;3.17;58.59
69796;BME280;57073;45.650;9.612;2023-01-30T00:17:50;99860.22;;;3.23;58.23
69796;BME280;57073;45.650;9.612;2023-01-30T00:27:50;99850.50;;;3.40;57.26
69796;BME280;57073;45.650;9.612;2023-01-30T00:37:51;99843.50;;;3.57;56.69
69796;BME280;57073;45.650;9.612;2023-01-30T00:47:51;99831.56;;;3.61;56.72
69796;BME280;57073;45.650;9.612;2023-01-30T00:57:51;99827.38;;;3.24;57.95
69796;BME280;57073;45.650;9.612;2023-01-30T01:07:52;99830.66;;;3.18;57.48
69796;BME280;57073;45.650;9.612;2023-01-30T01:17:53;99820.06;;;3.18;57.62
69796;BME280;57073;45.650;9.612;2023-01-30T01:27:53;99810.50;;;2.99;58.58
69796;BME280;57073;45.650;9.612;2023-01-30T01:37:55;99811.69;;;3.05;58.06
69796;BME280;57073;45.650;9.612;2023-01-30T01:48:05;99796.34;;;2.91;58.37
69796;BME280;57073;45.650;9.612;2023-01-30T01:58:11;99788.03;;;2.85;58.80
69796;BME280;57073;45.650;9.612;2023-01-30T02:08:17;99790.44;;;2.79;59.20
69796;BME280;57073;45.650;9.612;2023-01-30T02:18:19;99790.19;;;2.64;59.41
69796;BME280;57073;45.650;9.612;2023-01-30T02:48:54;99749.66;;;2.98;58.16
69796;BME280;57073;45.650;9.612;2023-01-30T02:59:01;99731.31;;;2.78;57.87
69796;BME280;57073;45.650;9.612;2023-01-30T03:09:19;99718.53;;;2.74;58.21
69796;BME280;57073;45.650;9.612;2023-01-30T03:19:21;99707.00;;;2.57;57.18
69796;BME280;57073;45.650;9.612;2023-01-30T03:29:22;99691.97;;;2.39;57.58
69796;BME280;57073;45.650;9.612;2023-01-30T03:39:23;99684.50;;;2.61;58.16
69796;BME280;57073;45.650;9.612;2023-01-30T03:49:24;99676.28;;;2.72;57.60
69796;BME280;57073;45.650;9.612;2023-01-30T03:59:24;99675.44;;;2.72;56.93
69796;BME280;57073;45.650;9.612;2023-01-30T04:09:25;99667.72;;;2.52;57.88
69796;BME280;57073;45.650;9.612;2023-01-30T04:19:25;99633.13;;;2.54;57.80
69796;BME280;57073;45.650;9.612;2023-01-30T04:29:26;99625.44;;;2.42;57.69
69796;BME280;57073;45.650;9.612;2023-01-30T04:39:26;99621.09;;;2.67;57.01
69796;BME280;57073;45.650;9.612;2023-01-30T04:49:26;99609.09;;;2.81;56.49
69796;BME280;57073;45.650;9.612;2023-01-30T04:59:27;99623.97;;;2.74;56.03
69796;BME280;57073;45.650;9.612;2023-01-30T05:09:27;99618.50;;;2.76;57.13
69796;BME280;57073;45.650;9.612;2023-01-30T05:19:27;99635.06;;;3.12;55.39
69796;BME280;57073;45.650;9.612;2023-01-30T05:29:28;99617.63;;;3.01;54.88
69796;BME280;57073;45.650;9.612;2023-01-30T05:39:28;99606.16;;;2.93;55.08
69796;BME280;57073;45.650;9.612;2023-01-30T05:49:28;99616.53;;;2.86;55.76
69796;BME280;57073;45.650;9.612;2023-01-30T05:59:29;99622.13;;;2.75;56.00
69796;BME280;57073;45.650;9.612;2023-01-30T06:09:29;99608.94;;;2.91;55.99
69796;BME280;57073;45.650;9.612;2023-01-30T06:19:30;99602.66;;;2.92;56.18
69796;BME280;57073;45.650;9.612;2023-01-30T06:29:30;99598.13;;;2.76;56.42
69796;BME280;57073;45.650;9.612;2023-01-30T06:39:30;99624.72;;;2.66;56.93
69796;BME280;57073;45.650;9.612;2023-01-30T06:49:31;99617.28;;;2.70;56.91
69796;BME280;57073;45.650;9.612;2023-01-30T06:59:31;99610.19;;;3.13;54.87
69796;BME280;57073;45.650;9.612;2023-01-30T07:09:31;99621.13;;;3.10;56.37
69796;BME280;57073;45.650;9.612;2023-01-30T07:19:32;99618.50;;;3.18;55.59
69796;BME280;57073;45.650;9.612;2023-01-30T07:29:34;99600.97;;;3.34;55.37
69796;BME280;57073;45.650;9.612;2023-01-30T07:39:34;99607.44;;;3.48;56.16
69796;BME280;57073;45.650;9.612;2023-01-30T07:49:35;99600.66;;;3.53;56.44
69796;BME280;57073;45.650;9.612;2023-01-30T07:59:35;99621.25;;;3.92;55.68
69796;BME280;57073;45.650;9.612;2023-01-30T08:09:35;99619.25;;;4.11;54.45
69796;BME280;57073;45.650;9.612;2023-01-30T08:19:36;99586.88;;;4.23;53.54
69796;BME280;57073;45.650;9.612;2023-01-30T08:29:36;99587.31;;;4.52;54.32
69796;BME280;57073;45.650;9.612;2023-01-30T08:39:36;99585.84;;;4.89;53.48
69796;BME280;57073;45.650;9.612;2023-01-30T08:49:37;99577.06;;;5.43;51.96
69796;BME280;57073;45.650;9.612;2023-01-30T08:59:37;99574.53;;;5.18;51.24
69796;BME280;57073;45.650;9.612;2023-01-30T09:09:38;99569.41;;;5.40;51.76
69796;BME280;57073;45.650;9.612;2023-01-30T09:19:38;99570.25;;;5.40;50.78
69796;BME280;57073;45.650;9.612;2023-01-30T09:29:38;99557.47;;;5.35;51.06
69796;BME280;57073;45.650;9.612;2023-01-30T09:39:39;99561.38;;;5.71;49.90
69796;BME280;57073;45.650;9.612;2023-01-30T10:10:23;99492.13;;;6.09;49.44
69796;BME280;57073;45.650;9.612;2023-01-30T10:30:34;99493.31;;;6.51;50.14
69796;BME280;57073;45.650;9.612;2023-01-30T10:40:40;99457.69;;;6.74;50.76
69796;BME280;57073;45.650;9.612;2023-01-30T10:50:56;99436.19;;;6.97;49.24
69796;BME280;57073;45.650;9.612;2023-01-30T11:01:16;99387.50;;;7.16;49.88
69796;BME280;57073;45.650;9.612;2023-01-30T11:21:25;99334.81;;;7.60;48.16
69796;BME280;57073;45.650;9.612;2023-01-30T11:31:28;99336.56;;;7.74;47.18
69796;BME280;57073;45.650;9.612;2023-01-30T11:41:29;99302.94;;;8.00;47.18
69796;BME280;57073;45.650;9.612;2023-01-30T11:51:33;99271.72;;;8.07;45.48
69796;BME280;57073;45.650;9.612;2023-01-30T12:01:35;99250.34;;;8.07;44.66
69796;BME280;57073;45.650;9.612;2023-01-30T12:21:45;99246.31;;;8.44;45.22
69796;BME280;57073;45.650;9.612;2023-01-30T13:13:02;99127.91;;;9.02;41.55
69796;BME280;57073;45.650;9.612;2023-01-30T13:23:24;99111.81;;;9.16;40.63
69796;BME280;57073;45.650;9.612;2023-01-30T13:33:31;99106.06;;;9.12;41.05
69796;BME280;57073;45.650;9.612;2023-01-30T13:43:38;99096.03;;;9.39;41.68
69796;BME280;57073;45.650;9.612;2023-01-30T14:03:48;99073.31;;;9.49;41.28
69796;BME280;57073;45.650;9.612;2023-01-30T14:13:53;99062.81;;;9.47;40.10
69796;BME280;57073;45.650;9.612;2023-01-30T14:24:00;99054.94;;;9.59;40.90
69796;BME280;57073;45.650;9.612;2023-01-30T14:34:01;99047.03;;;9.64;41.32
69796;BME280;57073;45.650;9.612;2023-01-30T14:44:01;99042.53;;;9.65;41.19
69796;BME280;57073;45.650;9.612;2023-01-30T15:04:13;99045.94;;;9.47;41.91
69796;BME280;57073;45.650;9.612;2023-01-30T15:14:27;99033.72;;;9.57;41.77
69796;BME280;57073;45.650;9.612;2023-01-30T15:25:11;99032.34;;;9.48;41.45
69796;BME280;57073;45.650;9.612;2023-01-30T15:55:37;99044.56;;;9.37;43.04
69796;BME280;57073;45.650;9.612;2023-01-30T16:05:45;99039.00;;;9.32;43.42
69796;BME280;57073;45.650;9.612;2023-01-30T16:25:53;99048.22;;;9.05;44.41
69796;BME280;57073;45.650;9.612;2023-01-30T16:35:54;99031.03;;;8.80;44.74
69796;BME280;57073;45.650;9.612;2023-01-30T16:56:24;99031.69;;;8.62;45.97
69796;BME280;57073;45.650;9.612;2023-01-30T17:06:38;99029.25;;;8.41;46.39
69796;BME280;57073;45.650;9.612;2023-01-30T17:16:42;99025.16;;;8.32;46.76
69796;BME280;57073;45.650;9.612;2023-01-30T17:26:47;99040.41;;;8.24;47.53
69796;BME280;57073;45.650;9.612;2023-01-30T17:36:50;99043.31;;;8.10;47.43
69796;BME280;57073;45.650;9.612;2023-01-30T17:46:51;99044.34;;;8.02;47.48
69796;BME280;57073;45.650;9.612;2023-01-30T17:56:53;99060.38;;;7.89;47.09
69796;BME280;57073;45.650;9.612;2023-01-30T18:06:59;99050.50;;;7.82;46.24
69796;BME280;57073;45.650;9.612;2023-01-30T18:17:04;99057.25;;;7.65;46.91
69796;BME280;57073;45.650;9.612;2023-01-30T18:27:04;99055.41;;;7.45;46.95
69796;BME280;57073;45.650;9.612;2023-01-30T18:37:05;99050.03;;;7.32;45.66
69796;BME280;57073;45.650;9.612;2023-01-30T18:47:05;99053.28;;;7.21;46.43
69796;BME280;57073;45.650;9.612;2023-01-30T18:57:06;99045.50;;;7.26;46.96
69796;BME280;57073;45.650;9.612;2023-01-30T19:07:06;99033.59;;;7.22;46.61
69796;BME280;57073;45.650;9.612;2023-01-30T19:17:06;99052.03;;;7.10;47.31
69796;BME280;57073;45.650;9.612;2023-01-30T19:27:07;99052.84;;;7.10;46.59
69796;BME280;57073;45.650;9.612;2023-01-30T19:37:12;99059.72;;;6.78;47.48
69796;BME280;57073;45.650;9.612;2023-01-30T19:47:13;99076.25;;;6.60;48.32
69796;BME280;57073;45.650;9.612;2023-01-30T19:57:13;99069.47;;;6.64;47.15
69796;BME280;57073;45.650;9.612;2023-01-30T20:07:13;99083.31;;;6.46;49.39
69796;BME280;57073;45.650;9.612;2023-01-30T20:17:14;99086.41;;;6.50;48.13
69796;BME280;57073;45.650;9.612;2023-01-30T20:27:14;99108.19;;;6.53;46.71
69796;BME280;57073;45.650;9.612;2023-01-30T20:37:14;99107.91;;;6.13;48.51
69796;BME280;57073;45.650;9.612;2023-01-30T20:47:15;99119.69;;;5.83;50.57
69796;BME280;57073;45.650;9.612;2023-01-30T20:57:15;99130.84;;;5.50;50.60
69796;BME280;57073;45.650;9.612;2023-01-30T21:07:16;99155.94;;;5.62;50.67
69796;BME280;57073;45.650;9.612;2023-01-30T21:17:16;99160.84;;;5.44;51.38
69796;BME280;57073;45.650;9.612;2023-01-30T21:27:16;99176.75;;;5.37;50.65
69796;BME280;57073;45.650;9.612;2023-01-30T21:37:18;99201.88;;;5.34;50.95
69796;BME280;57073;45.650;9.612;2023-01-30T21:47:37;99215.56;;;5.31;51.21
69796;BME280;57073;45.650;9.612;2023-01-30T21:57:37;99234.38;;;5.30;50.54
69796;BME280;57073;45.650;9.612;2023-01-30T22:07:38;99261.28;;;5.35;49.88
69796;BME280;57073;45.650;9.612;2023-01-30T22:17:38;99280.34;;;5.24;50.84
69796;BME280;57073;45.650;9.612;2023-01-30T22:27:38;99304.44;;;5.07;51.10
69796;BME280;57073;45.650;9.612;2023-01-30T22:37:39;99334.16;;;4.73;52.36
69796;BME280;57073;45.650;9.612;2023-01-30T22:47:39;99347.91;;;4.76;51.80
69796;BME280;57073;45.650;9.612;2023-01-30T22:57:39;99362.34;;;4.36;58.09
69796;BME280;57073;45.650;9.612;2023-01-30T23:07:40;99406.28;;;4.47;61.11
69796;BME280;57073;45.650;9.612;2023-01-30T23:17:40;99398.88;;;4.02;66.12
69796;BME280;57073;45.650;9.612;2023-01-30T23:27:59;99434.38;;;3.93;68.29
69796;BME280;57073;45.650;9.612;2023-01-30T23:37:59;99434.47;;;3.69;70.10
69796;BME280;57073;45.650;9.612;2023-01-30T23:48:15;99444.75;;;3.55;70.62
69796;BME280;57073;45.650;9.612;2023-01-30T23:58:15;99489.88;;;3.63;71.54
